Latest Weather Observations for Ulladulla

IDN60801

Issued at 11:02 am EDT Thursday 23 February 2017 (issued every 30 minutes, with the page automatically refreshed every 10 minutes)

About weather observations | Map of weather stations | Latest weather observations for NSW | Other Formats
Station Details ID: 069138 Name: ULLADULLA AWS Lat: -35.36 Lon: 150.48 Height: 35.7 m
Data from the previous 72 hours. | See also: Recent months at Ulladulla
Date/Time
EDT
Temp
°C
App
Temp
°C
Dew
Point
°C
Rel
Hum
%
Delta-T
°C
Wind Press
QNH
hPa
Press
MSL
hPa
Rain since
9am
mm
Dir  Spd
km/h
Gust
km/h
Spd
kts
Gust
kts
23/11:00am 23.9 24.8 19.2 75 3.0 NNE 13 20 7 11 1017.5 1017.4 0.0
23/10:30am 23.5 22.1 17.9 71 3.5 NE 22 28 12 15 1017.5 1017.4 0.0
23/10:00am 23.4 24.6 18.3 73 3.2 NNE 9 19 5 10 1017.7 1017.6 0.0
23/09:30am 23.0 24.6 18.3 75 3.0 NNE 7 13 4 7 1017.5 1017.4 0.0
23/09:00am 22.2 22.8 17.8 76 2.7 N 11 17 6 9 1017.6 1017.5 0.0
23/08:30am 22.1 23.8 18.5 80 2.3 N 7 15 4 8 1017.2 1017.1 0.0
23/08:00am 21.1 21.7 17.7 81 2.1 N 11 19 6 10 1017.2 1017.1 0.0
23/07:30am 20.5 21.4 17.5 83 1.8 N 9 13 5 7 1016.9 1016.8 0.0
23/07:00am 20.3 20.1 17.7 85 1.6 N 15 20 8 11 1016.5 1016.4 0.0
23/06:30am 20.6 20.8 17.6 83 1.8 N 13 19 7 10 1016.2 1016.1 0.0
23/06:00am 20.7 21.8 17.9 84 1.7 NNW 9 17 5 9 1016.1 1016.0 0.0
23/05:30am 20.6 20.7 17.4 82 2.0 N 13 22 7 12 1016.1 1016.0 0.0
23/05:00am 20.7 19.6 17.3 81 2.1 N 19 26 10 14 1016.0 1015.9 0.0
23/04:30am 21.0 19.5 17.6 81 2.1 N 22 28 12 15 1015.9 1015.8 0.0
23/04:00am 21.2 21.8 17.6 80 2.2 NNW 11 22 6 12 1015.7 1015.6 0.0
23/03:30am 21.2 22.5 17.6 80 2.2 NNE 7 15 4 8 1016.1 1016.0 0.0
23/03:00am 21.2 22.7 17.6 80 2.2 N 6 9 3 5 1016.5 1016.4 0.0
23/02:30am 21.3 21.4 17.5 79 2.3 NNW 13 20 7 11 1016.6 1016.5 0.0
23/02:00am 21.4 21.1 17.4 78 2.5 N 15 22 8 12 1017.0 1016.9 0.0
23/01:30am 21.4 20.8 17.6 79 2.3 N 17 24 9 13 1017.0 1016.9 0.0
23/01:00am 21.4 20.3 17.8 80 2.2 N 20 30 11 16 1017.0 1016.9 0.0
23/12:30am 21.5 21.0 17.7 79 2.4 N 17 26 9 14 1017.2 1017.1 0.0
23/12:00am 21.9 22.1 17.7 77 2.6 N 13 19 7 10 1017.4 1017.3 0.0
 
Date/Time
EDT
Temp
°C
App
Temp
°C
Dew
Point
°C
Rel
Hum
%
Delta-T
°C
Wind Press
QNH
hPa
Press
MSL
hPa
Rain since
9am
mm
Dir  Spd
km/h
Gust
km/h
Spd
kts
Gust
kts
22/11:30pm 22.4 22.5 18.4 78 2.5 N 15 22 8 12 1017.4 1017.3 0.0
22/11:00pm 22.6 23.3 18.8 79 2.4 NNW 13 20 7 11 1017.2 1017.1 0.0
22/10:30pm 22.7 24.1 18.7 78 2.5 NNW 9 17 5 9 1017.2 1017.1 0.0
22/10:00pm 23.0 24.4 18.7 77 2.7 NNE 9 20 5 11 1017.0 1016.9 0.0
22/09:30pm 23.1 23.6 18.4 75 3.0 N 13 22 7 12 1016.8 1016.7 0.0
22/09:00pm 23.2 24.1 18.3 74 3.1 NNE 11 24 6 13 1016.4 1016.3 0.0
22/08:30pm 23.2 24.5 18.5 75 3.0 NNE 9 24 5 13 1016.0 1015.9 0.0
22/08:00pm 23.3 23.4 18.4 74 3.1 NNE 15 24 8 13 1015.6 1015.5 0.0
22/07:30pm 23.5 23.9 18.2 72 3.3 NNE 13 26 7 14 1015.5 1015.4 0.0
22/07:00pm 23.7 23.7 18.1 71 3.5 NE 15 30 8 16 1015.3 1015.2 0.0
22/06:30pm 24.0 24.3 18.0 69 3.8 NNE 13 32 7 17 1015.2 1015.1 0.0
22/06:00pm 24.3 24.3 18.2 68 3.8 NNE 15 33 8 18 1015.2 1015.1 0.0
22/05:30pm 24.6 25.5 18.5 69 3.9 NNE 11 20 6 11 1015.3 1015.2 0.0
22/05:00pm 24.6 23.7 18.1 67 4.1 NE 20 32 11 17 1015.4 1015.3 0.0
22/04:30pm 24.5 22.8 18.0 67 4.1 NE 24 37 13 20 1015.5 1015.4 0.0
22/04:00pm 24.6 22.1 18.1 67 4.1 NE 28 43 15 23 1015.8 1015.7 0.0
22/03:46pm 24.6 21.9 17.6 65 4.4 NE 28 48 15 26 1016.0 1015.9 0.0
22/03:30pm 24.6 20.8 17.3 64 4.5 NE 33 44 18 24 1016.2 1016.1 0.0
22/03:02pm 24.9 21.1 17.1 62 4.8 NE 33 54 18 29 1016.5 1016.4 0.0
22/03:00pm 24.8 20.7 17.3 63 4.7 NE 35 54 19 29 1016.5 1016.4 0.0
22/02:30pm 24.7 20.2 17.4 64 4.5 NE 37 46 20 25 1016.8 1016.7 0.0
22/02:00pm 24.8 20.9 17.8 65 4.4 NNE 35 44 19 24 1017.2 1017.1 0.0
22/01:30pm 24.6 20.6 17.6 65 4.4 NNE 35 44 19 24 1017.5 1017.4 0.0
22/01:00pm 24.7 23.2 17.7 65 4.4 NNE 22 35 12 19 1017.9 1017.8 0.0
22/12:30pm 24.9 23.5 17.1 62 4.8 NNE 20 32 11 17 1018.3 1018.2 0.0
22/12:00pm 24.2 23.9 18.2 69 3.8 NE 17 24 9 13 1018.9 1018.8 0.0
22/11:30am 23.9 22.9 17.6 68 3.9 NNE 19 26 10 14 1019.4 1019.3 0.0
22/11:00am 23.1 22.3 17.1 69 3.7 NE 17 24 9 13 1019.9 1019.8 0.0
22/10:30am 22.7 22.2 16.9 70 3.6 NE 15 20 8 11 1020.4 1020.3 0.0
22/10:00am 22.8 24.4 17.9 74 3.0 NNE 6 9 3 5 1020.6 1020.5 0.0
22/09:30am 21.3 22.6 17.1 77 2.6 NNE 6 9 3 5 1020.7 1020.6 0.0
22/09:00am 20.7 21.9 16.9 79 2.3 NNE 6 9 3 5 1020.8 1020.7 0.0
22/08:30am 20.5 21.8 16.1 76 2.6 ESE 4 6 2 3 1020.7 1020.6 0.0
22/08:00am 19.8 21.4 15.9 78 2.3 SSW 2 4 1 2 1020.6 1020.5 0.0
22/07:30am 18.2 19.7 15.6 85 1.5 SSW 2 2 1 1 1020.1 1020.0 0.0
22/07:00am 17.1 18.6 14.7 86 1.4 CALM 0 0 0 0 1019.9 1019.8 0.0
22/06:30am 16.8 18.3 14.6 87 1.3 CALM 0 0 0 0 1019.6 1019.5 0.0
22/06:00am 16.9 18.4 14.7 87 1.3 CALM 0 0 0 0 1019.4 1019.3 0.0
22/05:30am 16.9 18.5 14.9 88 1.2 CALM 0 0 0 0 1019.2 1019.1 0.0
22/05:00am 16.8 18.3 14.6 87 1.3 CALM 0 0 0 0 1019.1 1019.0 0.0
22/04:30am 17.0 18.4 14.5 85 1.4 CALM 0 0 0 0 1019.1 1019.0 0.0
22/04:00am 17.2 18.6 14.5 84 1.5 CALM 0 0 0 0 1019.3 1019.2 0.0
22/03:30am 17.4 18.8 14.3 82 1.8 CALM 0 0 0 0 1019.5 1019.4 0.0
22/03:00am 17.7 19.0 14.2 80 2.0 CALM 0 0 0 0 1019.7 1019.6 0.0
22/02:30am 18.2 19.4 14.9 81 1.9 SSW 2 2 1 1 1019.7 1019.6 0.0
22/02:00am 18.4 19.3 15.1 81 1.9 SSW 4 4 2 2 1020.0 1019.9 0.0
22/01:30am 18.4 19.2 14.7 79 2.1 SSW 4 6 2 3 1020.3 1020.2 0.0
22/01:00am 19.1 19.6 15.0 77 2.4 WSW 6 9 3 5 1020.6 1020.5 0.0
22/12:30am 19.1 19.3 14.8 76 2.5 W 7 9 4 5 1020.9 1020.8 0.0
22/12:00am 19.7 20.1 14.7 73 2.9 W 6 9 3 5 1021.1 1021.0 0.0
 
Date/Time
EDT
Temp
°C
App
Temp
°C
Dew
Point
°C
Rel
Hum
%
Delta-T
°C
Wind Press
QNH
hPa
Press
MSL
hPa
Rain since
9am
mm
Dir  Spd
km/h
Gust
km/h
Spd
kts
Gust
kts
21/11:30pm 20.3 21.3 15.3 73 3.0 W 4 6 2 3 1021.3 1021.2 0.0
21/11:00pm 20.3 21.5 15.9 76 2.6 WNW 4 7 2 4 1021.3 1021.2 0.0
21/10:30pm 19.9 21.3 15.3 75 2.7 NW 2 4 1 2 1021.3 1021.2 0.0
21/10:00pm 21.0 22.7 16.2 74 2.9 NW 2 6 1 3 1021.5 1021.4 0.0
21/09:30pm 21.6 23.9 16.8 74 2.9 CALM 0 2 0 1 1021.4 1021.3 0.0
21/09:00pm 21.8 22.7 16.5 72 3.2 ENE 7 13 4 7 1021.1 1021.0 0.0
21/08:30pm 21.7 22.0 17.1 75 2.8 E 11 20 6 11 1020.7 1020.6 0.0
21/08:00pm 21.6 21.2 16.3 72 3.2 E 13 22 7 12 1020.4 1020.3 0.0
21/07:30pm 21.5 21.7 15.8 70 3.4 E 9 19 5 10 1020.4 1020.3 0.0
21/07:00pm 21.6 21.7 15.4 68 3.7 E 9 13 5 7 1020.2 1020.1 0.0
21/06:30pm 21.5 21.6 14.4 64 4.2 E 7 15 4 8 1019.9 1019.8 0.0
21/06:00pm 22.0 21.8 14.6 63 4.3 E 9 17 5 9 1019.8 1019.7 0.0
21/05:30pm 21.6 21.2 14.0 62 4.4 E 9 19 5 10 1019.9 1019.8 0.0
21/05:00pm 22.3 22.0 14.4 61 4.6 ESE 9 19 5 10 1019.9 1019.8 0.0
21/04:30pm 22.7 22.4 14.5 60 4.8 ESE 9 17 5 9 1019.9 1019.8 0.0
21/04:00pm 22.9 22.2 14.2 58 5.1 ESE 11 17 6 9 1019.8 1019.7 0.0
21/03:30pm 22.6 21.0 13.9 58 5.1 SSE 15 20 8 11 1019.9 1019.8 0.0
21/03:00pm 22.9 21.5 13.4 55 5.5 SSE 13 20 7 11 1020.1 1020.0 0.0
21/02:30pm 22.9 21.1 13.4 55 5.5 SSE 15 22 8 12 1020.2 1020.1 0.0
21/02:00pm 22.8 20.5 13.0 54 5.6 SSE 17 24 9 13 1020.5 1020.4 0.0
21/01:30pm 22.6 20.5 12.3 52 5.8 SSE 15 26 8 14 1020.5 1020.4 0.0
21/01:00pm 21.7 19.0 12.8 57 5.1 S 19 24 10 13 1020.7 1020.6 0.0
21/12:30pm 21.4 18.8 13.1 59 4.8 S 19 24 10 13 1021.0 1020.9 0.0
21/12:00pm 21.3 18.5 12.7 58 4.9 S 19 22 10 12 1021.1 1021.0 0.0
21/11:30am 21.6 19.1 12.2 55 5.3 S 17 20 9 11 1021.3 1021.2 0.0
21/11:00am 22.0 20.8 12.8 56 5.2 S 11 17 6 9 1021.3 1021.2 0.0
21/10:30am 21.9 20.9 12.2 54 5.5 SSW 9 15 5 8 1021.3 1021.2 0.0
21/10:00am 21.3 19.5 10.8 51 5.7 SSW 11 15 6 8 1021.2 1021.1 0.0
21/09:30am 20.7 18.3 9.9 50 5.8 SSW 13 17 7 9 1020.9 1020.8 0.0
21/09:00am 20.0 16.9 8.7 48 5.9 SSW 15 22 8 12 1020.5 1020.4 0.0
21/08:30am 19.5 16.5 7.6 46 6.1 SSW 13 20 7 11 1020.0 1019.9 0.0
21/08:00am 18.6 16.4 7.7 49 5.5 SW 9 13 5 7 1019.5 1019.4 0.0
21/07:30am 17.8 15.5 7.5 51 5.2 SW 9 15 5 8 1019.1 1019.0 0.0
21/07:00am 16.5 14.2 7.4 55 4.5 SW 9 13 5 7 1018.7 1018.6 0.0
21/06:30am 17.1 14.2 6.6 50 5.2 SW 11 13 6 7 1018.1 1018.0 0.0
21/06:00am 16.1 14.6 9.1 63 3.6 WSW 7 9 4 5 1017.9 1017.8 0.0
21/05:30am 16.0 14.8 9.4 65 3.4 WSW 6 9 3 5 1017.6 1017.5 0.0
21/05:00am 16.4 15.1 9.1 62 3.8 WSW 6 9 3 5 1017.3 1017.2 0.0
21/04:30am 16.5 14.8 9.9 65 3.5 WSW 9 13 5 7 1017.2 1017.1 0.0
21/04:00am 16.2 14.6 10.1 67 3.2 WSW 9 13 5 7 1017.2 1017.1 0.0
21/03:30am 16.3 14.6 9.9 66 3.4 WSW 9 11 5 6 1017.1 1017.0 0.0
21/03:00am 16.8 15.5 10.0 64 3.6 WSW 7 11 4 6 1017.2 1017.1 0.0
21/02:30am 16.8 15.2 10.2 65 3.5 WSW 9 13 5 7 1017.1 1017.0 0.0
21/02:00am 17.1 15.5 10.2 64 3.7 WSW 9 11 5 6 1017.0 1016.9 0.0
21/01:30am 17.0 15.5 10.4 65 3.5 WSW 9 13 5 7 1017.0 1016.9 0.0
21/01:00am 16.8 15.3 10.4 66 3.4 WSW 9 13 5 7 1017.1 1017.0 0.0
21/12:30am 16.6 15.5 10.7 68 3.2 WSW 7 11 4 6 1017.1 1017.0 0.0
21/12:00am 16.8 15.4 10.9 68 3.2 WSW 9 13 5 7 1017.0 1016.9 0.0
 
Date/Time
EDT
Temp
°C
App
Temp
°C
Dew
Point
°C
Rel
Hum
%
Delta-T
°C
Wind Press
QNH
hPa
Press
MSL
hPa
Rain since
9am
mm
Dir  Spd
km/h
Gust
km/h
Spd
kts
Gust
kts
20/11:30pm 17.0 15.5 10.6 66 3.4 WSW 9 13 5 7 1016.8 1016.7 0.0
20/11:00pm 17.6 16.4 10.2 62 3.9 WSW 7 11 4 6 1016.5 1016.4 0.0
20/10:30pm 19.7 19.2 10.7 56 4.9 SE 4 6 2 3 1016.2 1016.1 0.0
20/10:00pm 20.0 19.4 10.4 54 5.2 SE 4 7 2 4 1015.9 1015.8 0.0
20/09:30pm 20.1 19.1 10.2 53 5.3 ESE 6 9 3 5 1015.3 1015.2 0.0
20/09:00pm 20.5 19.4 10.6 53 5.4 SE 7 15 4 8 1014.6 1014.5 0.0
20/08:30pm 20.5 19.0 10.6 53 5.4 ESE 9 15 5 8 1013.9 1013.8 0.0
20/08:00pm 20.8 18.9 10.6 52 5.6 ESE 11 20 6 11 1013.2 1013.1 0.0
20/07:30pm 21.2 19.1 11.0 52 5.6 ESE 13 20 7 11 1012.4 1012.3 0.0
20/07:00pm 21.6 19.2 10.1 48 6.3 SE 13 24 7 13 1011.5 1011.4 0.0
20/06:30pm 22.0 20.2 12.0 53 5.6 SE 13 26 7 14 1010.8 1010.7 0.0
20/06:00pm 22.5 19.8 10.3 46 6.7 ESE 15 26 8 14 1010.2 1010.1 0.0
20/05:30pm 23.4 21.3 11.1 46 6.9 ESE 13 22 7 12 1009.6 1009.5 0.0
20/05:00pm 24.2 22.3 10.5 42 7.6 SE 11 17 6 9 1009.1 1009.0 0.0
20/04:30pm 24.8 22.1 7.4 33 9.2 SSE 11 17 6 9 1008.7 1008.6 0.0
20/04:00pm 24.8 21.8 7.9 34 9.0 S 13 28 7 15 1008.3 1008.2 0.0
20/03:30pm 26.3 22.2 2.3 21 11.6 WNW 13 33 7 18 1008.2 1008.1 0.0
20/03:00pm 26.0 21.9 2.0 21 11.6 WNW 13 26 7 14 1008.3 1008.2 0.0
20/02:30pm 25.6 22.6 4.1 25 10.7 W 9 20 5 11 1008.6 1008.5 0.0
20/02:00pm 24.8 20.8 0.3 20 11.4 WNW 11 20 6 11 1008.9 1008.8 0.0
20/01:30pm 23.9 20.5 2.1 24 10.4 WNW 9 20 5 11 1008.9 1008.8 0.0
20/01:00pm 23.5 19.7 4.0 28 9.6 NW 13 26 7 14 1009.0 1008.9 0.0
20/12:30pm 22.4 18.7 2.5 27 9.4 WNW 11 17 6 9 1009.2 1009.1 0.0
20/12:00pm 21.7 16.3 2.4 28 9.1 NW 20 32 11 17 1009.5 1009.4 0.0
20/11:30am - - - - - WNW 17 28 9 15 1009.6 1009.5 0.0

Other Formats:

Comma delimited format used in spreadsheet applications
http://www.bom.gov.au/fwo/IDN60801/IDN60801.94938.axf

JavaScript Object Notation format (JSON) in row-major order
http://www.bom.gov.au/fwo/IDN60801/IDN60801.94938.json